sensor_id;sensor_type;location;lat;lon;timestamp;P1;durP1;ratioP1;P2;durP2;ratioP2
27612;SDS011;15036;48.094;-1.690;2023-04-24T00:01:47;7.63;;;4.00;;
27612;SDS011;15036;48.094;-1.690;2023-04-24T00:04:13;10.98;;;4.55;;
27612;SDS011;15036;48.094;-1.690;2023-04-24T00:06:41;7.75;;;4.60;;
27612;SDS011;15036;48.094;-1.690;2023-04-24T00:09:08;8.73;;;4.32;;
27612;SDS011;15036;48.094;-1.690;2023-04-24T00:11:35;8.38;;;4.75;;
27612;SDS011;15036;48.094;-1.690;2023-04-24T00:14:01;8.50;;;4.72;;
27612;SDS011;15036;48.094;-1.690;2023-04-24T00:16:28;8.85;;;4.32;;
27612;SDS011;15036;48.094;-1.690;2023-04-24T00:18:55;10.70;;;4.72;;
27612;SDS011;15036;48.094;-1.690;2023-04-24T00:21:20;9.13;;;4.65;;
27612;SDS011;15036;48.094;-1.690;2023-04-24T00:23:46;8.80;;;4.72;;
27612;SDS011;15036;48.094;-1.690;2023-04-24T00:26:12;10.35;;;4.70;;
27612;SDS011;15036;48.094;-1.690;2023-04-24T00:28:38;8.52;;;4.80;;
27612;SDS011;15036;48.094;-1.690;2023-04-24T00:31:03;8.70;;;4.45;;
27612;SDS011;15036;48.094;-1.690;2023-04-24T00:33:28;8.48;;;4.32;;
27612;SDS011;15036;48.094;-1.690;2023-04-24T00:35:54;10.95;;;4.63;;
27612;SDS011;15036;48.094;-1.690;2023-04-24T00:38:20;12.20;;;4.30;;
27612;SDS011;15036;48.094;-1.690;2023-04-24T00:40:45;8.80;;;4.45;;
27612;SDS011;15036;48.094;-1.690;2023-04-24T00:43:12;9.50;;;4.80;;
27612;SDS011;15036;48.094;-1.690;2023-04-24T00:45:37;6.80;;;4.10;;
27612;SDS011;15036;48.094;-1.690;2023-04-24T00:48:03;7.88;;;4.10;;
27612;SDS011;15036;48.094;-1.690;2023-04-24T00:50:28;8.75;;;4.18;;
27612;SDS011;15036;48.094;-1.690;2023-04-24T00:52:55;9.10;;;3.85;;
27612;SDS011;15036;48.094;-1.690;2023-04-24T00:55:21;7.45;;;4.25;;
27612;SDS011;15036;48.094;-1.690;2023-04-24T00:57:46;10.00;;;4.78;;
27612;SDS011;15036;48.094;-1.690;2023-04-24T01:00:12;8.85;;;4.90;;
27612;SDS011;15036;48.094;-1.690;2023-04-24T01:02:39;9.95;;;4.95;;
27612;SDS011;15036;48.094;-1.690;2023-04-24T01:05:08;10.98;;;4.80;;
27612;SDS011;15036;48.094;-1.690;2023-04-24T01:07:34;10.77;;;4.97;;
27612;SDS011;15036;48.094;-1.690;2023-04-24T01:10:01;8.10;;;4.82;;
27612;SDS011;15036;48.094;-1.690;2023-04-24T01:12:27;11.30;;;5.05;;
27612;SDS011;15036;48.094;-1.690;2023-04-24T01:14:53;8.75;;;5.00;;
27612;SDS011;15036;48.094;-1.690;2023-04-24T01:17:21;7.47;;;4.93;;
27612;SDS011;15036;48.094;-1.690;2023-04-24T01:19:47;12.23;;;4.82;;
27612;SDS011;15036;48.094;-1.690;2023-04-24T01:22:15;8.73;;;4.47;;
27612;SDS011;15036;48.094;-1.690;2023-04-24T01:24:42;10.35;;;4.70;;
27612;SDS011;15036;48.094;-1.690;2023-04-24T01:27:08;10.07;;;5.07;;
27612;SDS011;15036;48.094;-1.690;2023-04-24T01:29:35;9.35;;;5.20;;
27612;SDS011;15036;48.094;-1.690;2023-04-24T01:32:01;9.93;;;4.85;;
27612;SDS011;15036;48.094;-1.690;2023-04-24T01:34:28;11.65;;;5.15;;
27612;SDS011;15036;48.094;-1.690;2023-04-24T01:36:53;10.85;;;5.00;;
27612;SDS011;15036;48.094;-1.690;2023-04-24T01:39:19;11.25;;;5.20;;
27612;SDS011;15036;48.094;-1.690;2023-04-24T01:41:45;11.85;;;5.22;;
27612;SDS011;15036;48.094;-1.690;2023-04-24T01:44:11;9.18;;;5.03;;
27612;SDS011;15036;48.094;-1.690;2023-04-24T01:46:37;10.82;;;4.68;;
27612;SDS011;15036;48.094;-1.690;2023-04-24T01:49:03;11.23;;;5.20;;
27612;SDS011;15036;48.094;-1.690;2023-04-24T01:51:28;9.63;;;5.28;;
27612;SDS011;15036;48.094;-1.690;2023-04-24T01:53:54;11.20;;;5.15;;
27612;SDS011;15036;48.094;-1.690;2023-04-24T01:56:21;10.70;;;4.30;;
27612;SDS011;15036;48.094;-1.690;2023-04-24T01:58:47;9.05;;;4.53;;
27612;SDS011;15036;48.094;-1.690;2023-04-24T02:01:17;9.75;;;4.47;;
27612;SDS011;15036;48.094;-1.690;2023-04-24T02:03:43;12.30;;;4.93;;
27612;SDS011;15036;48.094;-1.690;2023-04-24T02:06:10;11.35;;;5.20;;
27612;SDS011;15036;48.094;-1.690;2023-04-24T02:08:35;11.05;;;4.63;;
27612;SDS011;15036;48.094;-1.690;2023-04-24T02:11:01;12.38;;;5.47;;
27612;SDS011;15036;48.094;-1.690;2023-04-24T02:13:27;10.18;;;4.90;;
27612;SDS011;15036;48.094;-1.690;2023-04-24T02:15:53;10.55;;;4.60;;
27612;SDS011;15036;48.094;-1.690;2023-04-24T02:18:19;9.90;;;4.40;;
27612;SDS011;15036;48.094;-1.690;2023-04-24T02:20:44;10.75;;;4.85;;
27612;SDS011;15036;48.094;-1.690;2023-04-24T02:23:10;12.52;;;4.70;;
27612;SDS011;15036;48.094;-1.690;2023-04-24T02:25:36;9.38;;;4.10;;
27612;SDS011;15036;48.094;-1.690;2023-04-24T02:28:01;9.18;;;4.50;;
27612;SDS011;15036;48.094;-1.690;2023-04-24T02:30:27;10.15;;;3.88;;
27612;SDS011;15036;48.094;-1.690;2023-04-24T02:32:53;10.23;;;4.40;;
27612;SDS011;15036;48.094;-1.690;2023-04-24T02:35:18;9.75;;;4.38;;
27612;SDS011;15036;48.094;-1.690;2023-04-24T02:37:44;11.38;;;4.68;;
27612;SDS011;15036;48.094;-1.690;2023-04-24T02:40:09;14.85;;;4.97;;
27612;SDS011;15036;48.094;-1.690;2023-04-24T02:42:35;7.45;;;3.95;;
27612;SDS011;15036;48.094;-1.690;2023-04-24T02:45:00;10.75;;;4.60;;
27612;SDS011;15036;48.094;-1.690;2023-04-24T02:47:26;9.63;;;3.90;;
27612;SDS011;15036;48.094;-1.690;2023-04-24T02:52:16;10.07;;;4.87;;
27612;SDS011;15036;48.094;-1.690;2023-04-24T02:54:42;9.83;;;4.80;;
27612;SDS011;15036;48.094;-1.690;2023-04-24T02:57:08;10.65;;;4.50;;
27612;SDS011;15036;48.094;-1.690;2023-04-24T02:59:33;9.93;;;4.50;;
27612;SDS011;15036;48.094;-1.690;2023-04-24T03:04:24;9.80;;;4.50;;
27612;SDS011;15036;48.094;-1.690;2023-04-24T03:06:50;12.15;;;4.57;;
27612;SDS011;15036;48.094;-1.690;2023-04-24T03:14:08;7.72;;;4.30;;
27612;SDS011;15036;48.094;-1.690;2023-04-24T03:16:34;11.00;;;4.80;;
27612;SDS011;15036;48.094;-1.690;2023-04-24T03:18:59;9.65;;;4.55;;
27612;SDS011;15036;48.094;-1.690;2023-04-24T03:21:24;16.80;;;4.95;;
27612;SDS011;15036;48.094;-1.690;2023-04-24T03:23:51;8.48;;;3.88;;
27612;SDS011;15036;48.094;-1.690;2023-04-24T03:26:17;9.27;;;4.13;;
27612;SDS011;15036;48.094;-1.690;2023-04-24T03:28:42;8.80;;;4.00;;
27612;SDS011;15036;48.094;-1.690;2023-04-24T03:31:07;10.75;;;4.63;;
27612;SDS011;15036;48.094;-1.690;2023-04-24T03:33:33;12.63;;;4.40;;
27612;SDS011;15036;48.094;-1.690;2023-04-24T03:35:58;8.30;;;4.20;;
27612;SDS011;15036;48.094;-1.690;2023-04-24T03:38:23;7.85;;;3.60;;
27612;SDS011;15036;48.094;-1.690;2023-04-24T03:40:49;8.50;;;3.78;;
27612;SDS011;15036;48.094;-1.690;2023-04-24T03:43:14;9.30;;;3.70;;
27612;SDS011;15036;48.094;-1.690;2023-04-24T03:45:39;10.32;;;3.90;;
27612;SDS011;15036;48.094;-1.690;2023-04-24T03:48:05;6.00;;;3.50;;
27612;SDS011;15036;48.094;-1.690;2023-04-24T03:50:30;10.48;;;3.78;;
27612;SDS011;15036;48.094;-1.690;2023-04-24T03:52:55;6.28;;;3.45;;
27612;SDS011;15036;48.094;-1.690;2023-04-24T03:55:21;8.43;;;3.72;;
27612;SDS011;15036;48.094;-1.690;2023-04-24T03:57:46;7.95;;;3.70;;
27612;SDS011;15036;48.094;-1.690;2023-04-24T04:00:12;13.50;;;3.92;;
27612;SDS011;15036;48.094;-1.690;2023-04-24T04:02:37;6.53;;;3.72;;
27612;SDS011;15036;48.094;-1.690;2023-04-24T04:05:03;10.23;;;3.70;;
27612;SDS011;15036;48.094;-1.690;2023-04-24T04:07:28;12.00;;;4.15;;
27612;SDS011;15036;48.094;-1.690;2023-04-24T04:09:54;9.10;;;3.95;;
27612;SDS011;15036;48.094;-1.690;2023-04-24T04:12:20;9.40;;;3.85;;
27612;SDS011;15036;48.094;-1.690;2023-04-24T04:14:45;10.68;;;4.03;;
27612;SDS011;15036;48.094;-1.690;2023-04-24T04:17:10;8.43;;;4.03;;
27612;SDS011;15036;48.094;-1.690;2023-04-24T04:19:36;9.70;;;3.90;;
27612;SDS011;15036;48.094;-1.690;2023-04-24T04:22:02;10.70;;;4.00;;
27612;SDS011;15036;48.094;-1.690;2023-04-24T04:24:27;8.00;;;3.88;;
27612;SDS011;15036;48.094;-1.690;2023-04-24T04:26:53;8.23;;;3.78;;
27612;SDS011;15036;48.094;-1.690;2023-04-24T04:29:21;10.88;;;3.95;;
27612;SDS011;15036;48.094;-1.690;2023-04-24T04:31:47;10.32;;;4.20;;
27612;SDS011;15036;48.094;-1.690;2023-04-24T04:34:13;8.05;;;3.50;;
27612;SDS011;15036;48.094;-1.690;2023-04-24T04:36:39;9.07;;;3.60;;
27612;SDS011;15036;48.094;-1.690;2023-04-24T04:39:05;8.35;;;3.83;;
27612;SDS011;15036;48.094;-1.690;2023-04-24T04:41:31;8.65;;;3.67;;
27612;SDS011;15036;48.094;-1.690;2023-04-24T04:43:58;7.22;;;3.33;;
27612;SDS011;15036;48.094;-1.690;2023-04-24T04:46:24;8.77;;;3.63;;
27612;SDS011;15036;48.094;-1.690;2023-04-24T04:48:51;8.13;;;3.72;;
27612;SDS011;15036;48.094;-1.690;2023-04-24T04:51:17;10.60;;;3.65;;
27612;SDS011;15036;48.094;-1.690;2023-04-24T04:53:42;7.32;;;3.55;;
27612;SDS011;15036;48.094;-1.690;2023-04-24T04:56:08;8.90;;;3.67;;
27612;SDS011;15036;48.094;-1.690;2023-04-24T04:58:33;6.63;;;3.67;;
27612;SDS011;15036;48.094;-1.690;2023-04-24T05:00:58;10.95;;;3.55;;
27612;SDS011;15036;48.094;-1.690;2023-04-24T05:03:24;9.80;;;3.90;;
27612;SDS011;15036;48.094;-1.690;2023-04-24T05:05:50;7.82;;;3.80;;
27612;SDS011;15036;48.094;-1.690;2023-04-24T05:08:15;10.65;;;4.05;;
27612;SDS011;15036;48.094;-1.690;2023-04-24T05:10:41;7.80;;;4.00;;
27612;SDS011;15036;48.094;-1.690;2023-04-24T05:13:06;10.20;;;4.28;;
27612;SDS011;15036;48.094;-1.690;2023-04-24T05:15:31;6.63;;;3.35;;
27612;SDS011;15036;48.094;-1.690;2023-04-24T05:17:57;8.85;;;3.42;;
27612;SDS011;15036;48.094;-1.690;2023-04-24T05:20:22;7.90;;;3.30;;
27612;SDS011;15036;48.094;-1.690;2023-04-24T05:22:48;7.00;;;3.33;;
27612;SDS011;15036;48.094;-1.690;2023-04-24T05:25:13;8.65;;;4.00;;
27612;SDS011;15036;48.094;-1.690;2023-04-24T05:27:38;10.32;;;4.03;;
27612;SDS011;15036;48.094;-1.690;2023-04-24T05:30:04;6.68;;;3.58;;
27612;SDS011;15036;48.094;-1.690;2023-04-24T05:32:30;8.13;;;3.63;;
27612;SDS011;15036;48.094;-1.690;2023-04-24T05:34:55;12.50;;;4.20;;
27612;SDS011;15036;48.094;-1.690;2023-04-24T05:37:21;9.88;;;4.18;;
27612;SDS011;15036;48.094;-1.690;2023-04-24T05:39:46;13.65;;;3.97;;
27612;SDS011;15036;48.094;-1.690;2023-04-24T05:42:11;8.30;;;3.75;;
27612;SDS011;15036;48.094;-1.690;2023-04-24T05:44:37;10.70;;;4.13;;
27612;SDS011;15036;48.094;-1.690;2023-04-24T05:47:02;9.07;;;3.70;;
27612;SDS011;15036;48.094;-1.690;2023-04-24T05:49:28;12.98;;;4.10;;
27612;SDS011;15036;48.094;-1.690;2023-04-24T05:51:53;9.65;;;3.72;;
27612;SDS011;15036;48.094;-1.690;2023-04-24T05:54:18;8.40;;;4.18;;
27612;SDS011;15036;48.094;-1.690;2023-04-24T05:56:44;8.68;;;4.10;;
27612;SDS011;15036;48.094;-1.690;2023-04-24T05:59:09;9.23;;;3.92;;
27612;SDS011;15036;48.094;-1.690;2023-04-24T06:01:35;10.57;;;4.50;;
27612;SDS011;15036;48.094;-1.690;2023-04-24T06:04:02;9.32;;;4.22;;
27612;SDS011;15036;48.094;-1.690;2023-04-24T06:06:28;9.68;;;3.90;;
27612;SDS011;15036;48.094;-1.690;2023-04-24T06:08:54;7.40;;;3.45;;
27612;SDS011;15036;48.094;-1.690;2023-04-24T06:11:19;9.45;;;4.15;;
27612;SDS011;15036;48.094;-1.690;2023-04-24T06:13:45;8.27;;;3.95;;
27612;SDS011;15036;48.094;-1.690;2023-04-24T06:16:10;9.35;;;4.10;;
27612;SDS011;15036;48.094;-1.690;2023-04-24T06:18:36;9.25;;;4.00;;
27612;SDS011;15036;48.094;-1.690;2023-04-24T06:21:01;11.40;;;3.78;;
27612;SDS011;15036;48.094;-1.690;2023-04-24T06:23:27;11.35;;;3.90;;
27612;SDS011;15036;48.094;-1.690;2023-04-24T06:25:52;9.98;;;4.32;;
27612;SDS011;15036;48.094;-1.690;2023-04-24T06:28:18;10.05;;;4.13;;
27612;SDS011;15036;48.094;-1.690;2023-04-24T06:30:43;10.75;;;4.07;;
27612;SDS011;15036;48.094;-1.690;2023-04-24T06:33:09;8.00;;;4.15;;
27612;SDS011;15036;48.094;-1.690;2023-04-24T06:35:35;10.52;;;3.95;;
27612;SDS011;15036;48.094;-1.690;2023-04-24T06:38:01;12.32;;;4.47;;
27612;SDS011;15036;48.094;-1.690;2023-04-24T06:40:26;6.35;;;3.53;;
27612;SDS011;15036;48.094;-1.690;2023-04-24T06:42:52;8.45;;;4.20;;
27612;SDS011;15036;48.094;-1.690;2023-04-24T06:45:17;8.60;;;4.03;;
27612;SDS011;15036;48.094;-1.690;2023-04-24T06:47:43;8.38;;;4.30;;
27612;SDS011;15036;48.094;-1.690;2023-04-24T06:50:09;10.90;;;3.90;;
27612;SDS011;15036;48.094;-1.690;2023-04-24T06:52:34;8.82;;;3.78;;
27612;SDS011;15036;48.094;-1.690;2023-04-24T06:55:03;6.47;;;3.80;;
27612;SDS011;15036;48.094;-1.690;2023-04-24T06:57:29;8.38;;;4.20;;
27612;SDS011;15036;48.094;-1.690;2023-04-24T06:59:55;12.10;;;3.85;;
27612;SDS011;15036;48.094;-1.690;2023-04-24T07:02:20;10.02;;;4.07;;
27612;SDS011;15036;48.094;-1.690;2023-04-24T07:04:45;7.72;;;3.70;;
27612;SDS011;15036;48.094;-1.690;2023-04-24T07:07:12;6.03;;;3.35;;
27612;SDS011;15036;48.094;-1.690;2023-04-24T07:09:39;7.38;;;3.78;;
27612;SDS011;15036;48.094;-1.690;2023-04-24T07:12:07;6.50;;;3.42;;
27612;SDS011;15036;48.094;-1.690;2023-04-24T07:14:32;12.73;;;3.45;;
27612;SDS011;15036;48.094;-1.690;2023-04-24T07:16:58;6.88;;;3.78;;
27612;SDS011;15036;48.094;-1.690;2023-04-24T07:19:23;10.45;;;3.70;;
27612;SDS011;15036;48.094;-1.690;2023-04-24T07:21:49;8.88;;;3.60;;
27612;SDS011;15036;48.094;-1.690;2023-04-24T07:24:14;7.72;;;3.60;;
27612;SDS011;15036;48.094;-1.690;2023-04-24T07:26:40;6.43;;;3.70;;
27612;SDS011;15036;48.094;-1.690;2023-04-24T07:29:05;6.90;;;3.20;;
27612;SDS011;15036;48.094;-1.690;2023-04-24T07:31:31;8.15;;;3.38;;
27612;SDS011;15036;48.094;-1.690;2023-04-24T07:33:57;6.07;;;3.35;;
27612;SDS011;15036;48.094;-1.690;2023-04-24T07:36:23;7.85;;;3.28;;
27612;SDS011;15036;48.094;-1.690;2023-04-24T07:38:50;8.20;;;3.05;;
27612;SDS011;15036;48.094;-1.690;2023-04-24T07:41:16;11.52;;;3.90;;
27612;SDS011;15036;48.094;-1.690;2023-04-24T07:43:41;6.53;;;3.50;;
27612;SDS011;15036;48.094;-1.690;2023-04-24T07:46:07;7.85;;;3.67;;
27612;SDS011;15036;48.094;-1.690;2023-04-24T07:48:33;6.97;;;3.45;;
27612;SDS011;15036;48.094;-1.690;2023-04-24T07:51:00;10.00;;;3.55;;
27612;SDS011;15036;48.094;-1.690;2023-04-24T07:53:25;6.47;;;3.40;;
27612;SDS011;15036;48.094;-1.690;2023-04-24T07:55:51;7.30;;;3.10;;
27612;SDS011;15036;48.094;-1.690;2023-04-24T07:58:16;8.82;;;3.30;;
27612;SDS011;15036;48.094;-1.690;2023-04-24T08:00:42;7.85;;;3.33;;
27612;SDS011;15036;48.094;-1.690;2023-04-24T08:03:07;8.48;;;3.20;;
27612;SDS011;15036;48.094;-1.690;2023-04-24T08:05:32;4.93;;;3.38;;
27612;SDS011;15036;48.094;-1.690;2023-04-24T08:07:58;7.22;;;3.58;;
27612;SDS011;15036;48.094;-1.690;2023-04-24T08:10:24;10.15;;;4.00;;
27612;SDS011;15036;48.094;-1.690;2023-04-24T08:12:50;7.82;;;3.55;;
27612;SDS011;15036;48.094;-1.690;2023-04-24T08:15:15;6.05;;;3.13;;
27612;SDS011;15036;48.094;-1.690;2023-04-24T08:17:41;6.20;;;3.50;;
27612;SDS011;15036;48.094;-1.690;2023-04-24T08:20:08;6.53;;;3.25;;
27612;SDS011;15036;48.094;-1.690;2023-04-24T08:22:38;5.47;;;3.08;;
27612;SDS011;15036;48.094;-1.690;2023-04-24T08:25:08;8.07;;;3.92;;
27612;SDS011;15036;48.094;-1.690;2023-04-24T08:27:34;5.50;;;3.40;;
27612;SDS011;15036;48.094;-1.690;2023-04-24T08:30:01;7.00;;;3.30;;
27612;SDS011;15036;48.094;-1.690;2023-04-24T08:32:27;6.38;;;3.47;;
27612;SDS011;15036;48.094;-1.690;2023-04-24T08:34:54;7.07;;;3.17;;
27612;SDS011;15036;48.094;-1.690;2023-04-24T08:37:21;6.75;;;3.15;;
27612;SDS011;15036;48.094;-1.690;2023-04-24T08:39:47;9.32;;;3.30;;
27612;SDS011;15036;48.094;-1.690;2023-04-24T08:42:13;8.27;;;3.30;;
27612;SDS011;15036;48.094;-1.690;2023-04-24T08:44:40;6.60;;;3.45;;
27612;SDS011;15036;48.094;-1.690;2023-04-24T08:47:06;7.15;;;3.20;;
27612;SDS011;15036;48.094;-1.690;2023-04-24T08:49:32;6.75;;;3.20;;
27612;SDS011;15036;48.094;-1.690;2023-04-24T08:51:59;7.75;;;3.53;;
27612;SDS011;15036;48.094;-1.690;2023-04-24T08:54:25;6.03;;;3.17;;
27612;SDS011;15036;48.094;-1.690;2023-04-24T08:56:51;6.93;;;3.20;;
27612;SDS011;15036;48.094;-1.690;2023-04-24T08:59:19;6.47;;;3.30;;
27612;SDS011;15036;48.094;-1.690;2023-04-24T09:01:46;6.05;;;3.20;;
27612;SDS011;15036;48.094;-1.690;2023-04-24T09:04:13;6.82;;;3.05;;
27612;SDS011;15036;48.094;-1.690;2023-04-24T09:06:40;6.22;;;3.20;;
27612;SDS011;15036;48.094;-1.690;2023-04-24T09:09:06;5.78;;;3.50;;
27612;SDS011;15036;48.094;-1.690;2023-04-24T09:11:33;7.82;;;3.28;;
27612;SDS011;15036;48.094;-1.690;2023-04-24T09:13:58;11.32;;;3.60;;
27612;SDS011;15036;48.094;-1.690;2023-04-24T09:16:25;8.68;;;3.17;;
27612;SDS011;15036;48.094;-1.690;2023-04-24T09:18:51;6.22;;;3.20;;
27612;SDS011;15036;48.094;-1.690;2023-04-24T09:21:17;10.80;;;3.15;;
27612;SDS011;15036;48.094;-1.690;2023-04-24T09:23:42;12.10;;;3.42;;
27612;SDS011;15036;48.094;-1.690;2023-04-24T09:26:08;7.25;;;3.05;;
27612;SDS011;15036;48.094;-1.690;2023-04-24T09:28:36;9.75;;;3.00;;
27612;SDS011;15036;48.094;-1.690;2023-04-24T09:33:32;7.60;;;2.85;;
27612;SDS011;15036;48.094;-1.690;2023-04-24T09:35:57;9.23;;;3.78;;
27612;SDS011;15036;48.094;-1.690;2023-04-24T09:38:30;11.20;;;3.25;;
27612;SDS011;15036;48.094;-1.690;2023-04-24T09:41:00;8.50;;;3.08;;
27612;SDS011;15036;48.094;-1.690;2023-04-24T09:43:38;12.55;;;3.53;;
27612;SDS011;15036;48.094;-1.690;2023-04-24T09:46:04;7.35;;;3.28;;
27612;SDS011;15036;48.094;-1.690;2023-04-24T09:48:34;8.55;;;2.80;;
27612;SDS011;15036;48.094;-1.690;2023-04-24T09:51:01;8.23;;;2.92;;
27612;SDS011;15036;48.094;-1.690;2023-04-24T09:53:29;13.35;;;3.28;;
27612;SDS011;15036;48.094;-1.690;2023-04-24T09:55:55;8.90;;;3.22;;
27612;SDS011;15036;48.094;-1.690;2023-04-24T09:58:24;5.72;;;2.95;;
27612;SDS011;15036;48.094;-1.690;2023-04-24T10:00:54;8.85;;;3.03;;
27612;SDS011;15036;48.094;-1.690;2023-04-24T10:03:20;13.10;;;3.30;;
27612;SDS011;15036;48.094;-1.690;2023-04-24T10:05:46;11.18;;;4.80;;
27612;SDS011;15036;48.094;-1.690;2023-04-24T10:08:12;10.73;;;3.53;;
27612;SDS011;15036;48.094;-1.690;2023-04-24T10:10:42;7.43;;;2.50;;
27612;SDS011;15036;48.094;-1.690;2023-04-24T10:13:09;9.43;;;2.10;;
27612;SDS011;15036;48.094;-1.690;2023-04-24T10:15:35;9.00;;;2.70;;
27612;SDS011;15036;48.094;-1.690;2023-04-24T10:18:01;7.32;;;2.63;;
27612;SDS011;15036;48.094;-1.690;2023-04-24T10:20:29;9.43;;;2.72;;
27612;SDS011;15036;48.094;-1.690;2023-04-24T10:22:58;8.75;;;3.03;;
27612;SDS011;15036;48.094;-1.690;2023-04-24T10:25:25;9.13;;;3.03;;
27612;SDS011;15036;48.094;-1.690;2023-04-24T10:27:53;8.02;;;3.03;;
27612;SDS011;15036;48.094;-1.690;2023-04-24T10:30:22;10.15;;;2.97;;
27612;SDS011;15036;48.094;-1.690;2023-04-24T10:32:48;7.28;;;3.22;;
27612;SDS011;15036;48.094;-1.690;2023-04-24T10:35:13;10.15;;;2.92;;
27612;SDS011;15036;48.094;-1.690;2023-04-24T10:37:43;8.07;;;2.80;;
27612;SDS011;15036;48.094;-1.690;2023-04-24T10:40:11;8.73;;;2.95;;
27612;SDS011;15036;48.094;-1.690;2023-04-24T10:42:43;6.90;;;2.90;;
27612;SDS011;15036;48.094;-1.690;2023-04-24T10:45:16;10.57;;;3.03;;
27612;SDS011;15036;48.094;-1.690;2023-04-24T10:47:50;10.27;;;3.20;;
27612;SDS011;15036;48.094;-1.690;2023-04-24T10:50:16;11.60;;;3.08;;
27612;SDS011;15036;48.094;-1.690;2023-04-24T10:52:45;8.85;;;3.00;;
27612;SDS011;15036;48.094;-1.690;2023-04-24T10:55:14;8.40;;;3.50;;
27612;SDS011;15036;48.094;-1.690;2023-04-24T10:57:40;10.13;;;3.28;;
27612;SDS011;15036;48.094;-1.690;2023-04-24T11:00:26;6.72;;;2.75;;
27612;SDS011;15036;48.094;-1.690;2023-04-24T11:02:52;9.73;;;3.38;;
27612;SDS011;15036;48.094;-1.690;2023-04-24T11:05:19;9.30;;;3.50;;
27612;SDS011;15036;48.094;-1.690;2023-04-24T11:10:41;7.18;;;2.92;;
27612;SDS011;15036;48.094;-1.690;2023-04-24T11:13:09;8.43;;;2.88;;
27612;SDS011;15036;48.094;-1.690;2023-04-24T11:15:35;7.20;;;2.92;;
27612;SDS011;15036;48.094;-1.690;2023-04-24T11:18:00;11.50;;;3.50;;
27612;SDS011;15036;48.094;-1.690;2023-04-24T11:20:26;8.35;;;3.00;;
27612;SDS011;15036;48.094;-1.690;2023-04-24T11:22:52;9.48;;;3.15;;
27612;SDS011;15036;48.094;-1.690;2023-04-24T11:25:22;9.10;;;3.30;;
27612;SDS011;15036;48.094;-1.690;2023-04-24T11:27:48;7.15;;;3.05;;
27612;SDS011;15036;48.094;-1.690;2023-04-24T11:30:18;11.20;;;3.70;;
27612;SDS011;15036;48.094;-1.690;2023-04-24T11:32:48;10.82;;;3.00;;
27612;SDS011;15036;48.094;-1.690;2023-04-24T11:35:22;9.57;;;3.00;;
27612;SDS011;15036;48.094;-1.690;2023-04-24T11:37:50;8.35;;;2.70;;
27612;SDS011;15036;48.094;-1.690;2023-04-24T11:40:17;8.13;;;3.10;;
27612;SDS011;15036;48.094;-1.690;2023-04-24T11:42:48;8.77;;;2.58;;
27612;SDS011;15036;48.094;-1.690;2023-04-24T11:45:25;10.30;;;3.00;;
27612;SDS011;15036;48.094;-1.690;2023-04-24T11:47:54;6.05;;;2.60;;
27612;SDS011;15036;48.094;-1.690;2023-04-24T11:50:23;10.23;;;3.17;;
27612;SDS011;15036;48.094;-1.690;2023-04-24T11:52:54;7.72;;;2.30;;
27612;SDS011;15036;48.094;-1.690;2023-04-24T11:57:47;7.47;;;2.30;;
27612;SDS011;15036;48.094;-1.690;2023-04-24T12:00:20;7.10;;;2.30;;
27612;SDS011;15036;48.094;-1.690;2023-04-24T12:02:48;11.15;;;2.60;;
27612;SDS011;15036;48.094;-1.690;2023-04-24T12:05:48;7.03;;;2.50;;
27612;SDS011;15036;48.094;-1.690;2023-04-24T12:08:06;7.93;;;2.65;;
27612;SDS011;15036;48.094;-1.690;2023-04-24T12:10:32;7.65;;;2.60;;
27612;SDS011;15036;48.094;-1.690;2023-04-24T12:12:58;8.88;;;2.75;;
27612;SDS011;15036;48.094;-1.690;2023-04-24T12:15:25;5.63;;;2.53;;
27612;SDS011;15036;48.094;-1.690;2023-04-24T12:17:55;10.50;;;2.70;;
27612;SDS011;15036;48.094;-1.690;2023-04-24T12:20:28;6.75;;;2.47;;
27612;SDS011;15036;48.094;-1.690;2023-04-24T12:22:57;6.25;;;2.30;;
27612;SDS011;15036;48.094;-1.690;2023-04-24T12:25:25;7.78;;;2.17;;
27612;SDS011;15036;48.094;-1.690;2023-04-24T12:27:53;10.88;;;2.53;;
27612;SDS011;15036;48.094;-1.690;2023-04-24T12:30:20;8.10;;;2.28;;
27612;SDS011;15036;48.094;-1.690;2023-04-24T12:32:47;7.10;;;2.60;;
27612;SDS011;15036;48.094;-1.690;2023-04-24T12:35:14;8.75;;;2.30;;
27612;SDS011;15036;48.094;-1.690;2023-04-24T12:37:45;8.43;;;2.42;;
27612;SDS011;15036;48.094;-1.690;2023-04-24T12:40:11;6.97;;;2.50;;
27612;SDS011;15036;48.094;-1.690;2023-04-24T12:45:10;7.35;;;2.30;;
27612;SDS011;15036;48.094;-1.690;2023-04-24T12:47:40;8.57;;;2.22;;
27612;SDS011;15036;48.094;-1.690;2023-04-24T12:50:10;10.80;;;2.53;;
27612;SDS011;15036;48.094;-1.690;2023-04-24T12:52:37;7.40;;;2.22;;
27612;SDS011;15036;48.094;-1.690;2023-04-24T12:55:04;5.00;;;2.25;;
27612;SDS011;15036;48.094;-1.690;2023-04-24T12:57:33;7.57;;;2.50;;
27612;SDS011;15036;48.094;-1.690;2023-04-24T12:59:58;7.05;;;2.20;;
27612;SDS011;15036;48.094;-1.690;2023-04-24T13:02:25;7.47;;;2.50;;
27612;SDS011;15036;48.094;-1.690;2023-04-24T13:04:52;12.05;;;2.42;;
27612;SDS011;15036;48.094;-1.690;2023-04-24T13:07:18;4.72;;;2.15;;
27612;SDS011;15036;48.094;-1.690;2023-04-24T13:09:44;8.77;;;2.75;;
27612;SDS011;15036;48.094;-1.690;2023-04-24T13:12:11;8.70;;;2.45;;
27612;SDS011;15036;48.094;-1.690;2023-04-24T13:14:37;7.70;;;2.40;;
27612;SDS011;15036;48.094;-1.690;2023-04-24T13:17:03;6.53;;;2.50;;
27612;SDS011;15036;48.094;-1.690;2023-04-24T13:19:28;8.48;;;2.50;;
27612;SDS011;15036;48.094;-1.690;2023-04-24T13:21:54;7.72;;;2.72;;
27612;SDS011;15036;48.094;-1.690;2023-04-24T13:24:21;8.60;;;2.42;;
27612;SDS011;15036;48.094;-1.690;2023-04-24T13:26:51;7.28;;;2.45;;
27612;SDS011;15036;48.094;-1.690;2023-04-24T13:29:17;5.97;;;2.50;;
27612;SDS011;15036;48.094;-1.690;2023-04-24T13:31:42;9.35;;;2.55;;
27612;SDS011;15036;48.094;-1.690;2023-04-24T13:34:08;6.00;;;2.22;;
27612;SDS011;15036;48.094;-1.690;2023-04-24T13:36:33;7.68;;;2.40;;
27612;SDS011;15036;48.094;-1.690;2023-04-24T13:38:59;7.97;;;2.42;;
27612;SDS011;15036;48.094;-1.690;2023-04-24T13:41:24;7.13;;;2.22;;
27612;SDS011;15036;48.094;-1.690;2023-04-24T13:43:49;7.20;;;2.45;;
27612;SDS011;15036;48.094;-1.690;2023-04-24T13:46:15;6.72;;;2.30;;
27612;SDS011;15036;48.094;-1.690;2023-04-24T13:48:41;8.00;;;2.15;;
27612;SDS011;15036;48.094;-1.690;2023-04-24T13:51:06;7.68;;;2.40;;
27612;SDS011;15036;48.094;-1.690;2023-04-24T13:53:32;7.50;;;2.30;;
27612;SDS011;15036;48.094;-1.690;2023-04-24T13:56:00;8.80;;;2.67;;
27612;SDS011;15036;48.094;-1.690;2023-04-24T13:58:27;7.63;;;2.40;;
27612;SDS011;15036;48.094;-1.690;2023-04-24T14:00:52;8.45;;;2.47;;
27612;SDS011;15036;48.094;-1.690;2023-04-24T14:03:18;6.53;;;2.17;;
27612;SDS011;15036;48.094;-1.690;2023-04-24T14:05:43;9.27;;;2.67;;
27612;SDS011;15036;48.094;-1.690;2023-04-24T14:08:09;11.68;;;2.63;;
27612;SDS011;15036;48.094;-1.690;2023-04-24T14:10:34;7.80;;;2.45;;
27612;SDS011;15036;48.094;-1.690;2023-04-24T14:13:00;5.95;;;2.33;;
27612;SDS011;15036;48.094;-1.690;2023-04-24T14:15:25;7.90;;;2.60;;
27612;SDS011;15036;48.094;-1.690;2023-04-24T14:17:51;7.53;;;2.30;;
27612;SDS011;15036;48.094;-1.690;2023-04-24T14:20:16;8.07;;;2.97;;
27612;SDS011;15036;48.094;-1.690;2023-04-24T14:22:42;9.30;;;2.65;;
27612;SDS011;15036;48.094;-1.690;2023-04-24T14:25:07;8.82;;;3.17;;
27612;SDS011;15036;48.094;-1.690;2023-04-24T14:27:33;9.27;;;3.58;;
27612;SDS011;15036;48.094;-1.690;2023-04-24T14:29:59;9.82;;;3.47;;
27612;SDS011;15036;48.094;-1.690;2023-04-24T14:32:25;11.65;;;5.40;;
27612;SDS011;15036;48.094;-1.690;2023-04-24T14:34:50;14.05;;;5.93;;
27612;SDS011;15036;48.094;-1.690;2023-04-24T14:37:16;10.30;;;3.60;;
27612;SDS011;15036;48.094;-1.690;2023-04-24T14:39:41;10.15;;;4.00;;
27612;SDS011;15036;48.094;-1.690;2023-04-24T14:42:07;9.57;;;3.97;;
27612;SDS011;15036;48.094;-1.690;2023-04-24T14:44:32;8.52;;;3.30;;
27612;SDS011;15036;48.094;-1.690;2023-04-24T14:46:58;6.13;;;3.00;;